EKOD

Odense Airport

Odense, Denmark
METAR EKOD 201450Z 29008KT 9999 FEW033 12/07 Q1027
Observed Flight Rules
Oct-20 @ 14:50 UTC (3 hours ago) Visual Flight Rules
Wind Visibility Clouds
290° at 8 knots 10,000+ meters
  • Few at 3,300' AGL
Temperatures Readings
Current 12°C / 54°F
Dewpoint 7°C / 45°F
Humidity 72%
Altimeter 30.32" Hg
Pressure 1027 hPa
Elevation 17
METAR EKOD 201450Z 29008KT 9999 FEW033 12/07 Q1027
Observed Flight Rules
Oct-20 @ 14:50 UTC
(3 hours ago)
VFR
Wind Visibility
290° at 8 knots 10,000+ meters
Clouds
  • Few at 3,300' AGL
Temperature Dewpoint
12°C / 54°F 7°C / 45°F
Humidity Altimeter Pressure
72% 30.32" Hg 1027 hPa